Time;durP1;ratioP1;P1;durP2;ratioP2;P2;SDS_P1;SDS_P2;PMS_P1;PMS_P2;Temp;Humidity;BMP_temperature;BMP_pressure;BME280_temperature;BME280_humidity;BME280_pressure;Samples;Min_cycle;Max_cycle;Signal;HPM_P1;HPM_P2
2022/02/24 00:00:10;;;;;;;6.47;2.28;;;9.30;98.50;;;7.80;85.68;100692.78;5047221;28;20046;-84
2022/02/24 00:02:41;;;;;;;9.68;3.17;;;9.30;98.70;;;7.82;86.37;100699.78;5047398;28;20418;-84
2022/02/24 00:05:10;;;;;;;11.50;2.53;;;9.30;99.00;;;7.82;85.63;100691.66;5046054;28;20065;-84
2022/02/24 00:07:37;;;;;;;11.43;2.97;;;9.30;99.00;;;7.80;86.34;100681.97;5045337;28;20049;-84
2022/02/24 00:10:08;;;;;;;11.85;3.28;;;9.20;99.00;;;7.81;85.79;100680.97;5066748;28;20056;-84
2022/02/24 00:12:38;;;;;;;;;;;9.20;98.90;;;7.80;86.05;100674.66;5035798;28;20128;-84
2022/02/24 00:15:06;;;;;;;13.23;3.33;;;9.30;98.60;;;7.80;86.37;100674.66;5043109;28;19921;-84
2022/02/24 00:17:34;;;;;;;12.27;3.28;;;9.30;99.00;;;7.78;85.32;100673.16;5051539;28;20131;-84
2022/02/24 00:20:02;;;;;;;11.25;3.17;;;9.30;99.00;;;7.77;85.98;100675.00;5036439;28;20515;-83
2022/02/24 00:22:31;;;;;;;13.90;3.30;;;9.30;99.10;;;7.80;84.90;100668.41;5040388;23;20057;-88
2022/02/24 00:24:58;;;;;;;11.90;3.50;;;9.30;98.60;;;7.81;85.53;100670.97;5015738;28;20495;-88
2022/02/24 00:27:27;;;;;;;10.80;2.95;;;9.30;98.60;;;7.87;85.88;100664.03;5030487;28;20041;-88
2022/02/24 00:29:55;;;;;;;10.50;2.55;;;9.30;98.60;;;7.88;85.43;100659.47;5030507;28;20052;-87
2022/02/24 00:32:23;;;;;;;14.63;2.92;;;9.30;98.90;;;7.80;85.44;100654.88;5016553;28;20042;-87
2022/02/24 00:34:50;;;;;;;13.38;3.10;;;9.40;98.90;;;7.79;85.38;100656.72;5010141;28;20712;-89
2022/02/24 00:37:17;;;;;;;12.63;3.10;;;9.30;98.50;;;7.84;85.49;100653.53;5010835;28;20050;-88
2022/02/24 00:39:45;;;;;;;11.05;2.97;;;9.30;99.00;;;7.88;85.54;100654.91;5010754;28;20488;-89
2022/02/24 00:42:12;;;;;;;13.85;2.85;;;9.30;99.10;;;7.86;85.96;100642.53;5008974;28;20049;-88
2022/02/24 00:44:39;;;;;;;6.88;2.95;;;9.40;99.30;;;7.81;85.37;100646.56;5009730;28;20038;-88
2022/02/24 00:47:08;;;;;;;13.07;4.25;;;9.30;98.00;;;7.86;85.67;100645.22;5010658;28;20070;-89
2022/02/24 00:49:36;;;;;;;10.73;2.90;;;9.30;98.80;;;7.86;84.98;100646.06;5010673;28;20518;-89
2022/02/24 00:52:04;;;;;;;14.02;3.30;;;9.30;99.00;;;7.91;86.52;100651.03;5009465;28;20048;-89
2022/02/24 00:54:31;;;;;;;13.55;2.95;;;9.30;98.20;;;7.92;85.23;100645.44;5010298;28;20137;-88
2022/02/24 00:56:58;;;;;;;6.80;2.67;;;9.30;98.40;;;7.93;84.93;100636.28;5010486;28;20038;-88
2022/02/24 00:59:26;;;;;;;9.05;3.10;;;9.30;98.40;;;7.90;85.60;100647.47;5010430;28;20046;-89
2022/02/24 01:01:53;;;;;;;13.73;3.22;;;9.40;98.20;;;7.89;85.15;100640.34;5010051;28;20042;-88
2022/02/24 01:04:22;;;;;;;9.02;2.72;;;9.40;98.20;;;7.86;85.55;100618.13;5009427;28;20120;-88
2022/02/24 01:06:49;;;;;;;13.00;2.80;;;9.40;98.20;;;7.88;85.53;100637.78;5010109;28;20463;-89
2022/02/24 01:09:17;;;;;;;11.48;3.10;;;9.40;98.20;;;7.89;85.51;100634.91;5010184;28;20042;-88
2022/02/24 01:11:44;;;;;;;10.45;3.03;;;9.40;98.00;;;7.89;85.76;100624.09;5008550;28;20041;-90
2022/02/24 01:14:11;;;;;;;14.32;3.60;;;9.40;98.70;;;7.94;86.54;100618.16;5009332;28;20121;-88
2022/02/24 01:16:38;;;;;;;11.32;2.90;;;9.40;98.70;;;7.92;86.21;100609.34;5009859;28;20141;-88
2022/02/24 01:19:06;;;;;;;14.70;3.13;;;9.40;99.40;;;7.91;85.50;100615.78;5009811;28;20046;-88
2022/02/24 01:21:35;;;;;;;12.40;3.47;;;9.30;98.70;;;7.91;86.05;100604.97;5009294;28;20050;-88
2022/02/24 01:24:03;;;;;;;9.85;2.97;;;9.30;98.80;;;7.92;84.83;100604.78;5008621;28;20124;-89
2022/02/24 01:26:30;;;;;;;12.00;3.05;;;9.30;98.50;;;7.90;86.00;100592.41;5008584;28;20162;-88
2022/02/24 01:28:58;;;;;;;13.60;3.28;;;9.40;99.00;;;7.92;85.74;100595.78;5010140;28;20565;-89
2022/02/24 01:31:28;;;;;;;9.00;2.53;;;9.40;98.90;;;7.89;85.63;100596.16;5010048;28;20041;-88
2022/02/24 01:33:55;;;;;;;11.68;3.15;;;9.30;99.00;;;7.88;85.52;100599.84;5009405;28;20042;-88
2022/02/24 01:36:22;;;;;;;11.82;3.03;;;9.30;98.20;;;7.89;86.21;100591.56;5000107;28;20034;-89
2022/02/24 01:38:51;;;;;;;11.60;3.10;;;9.40;98.40;;;7.85;85.58;100583.94;5010114;28;20092;-89
2022/02/24 01:41:18;;;;;;;11.75;3.03;;;9.30;98.10;;;7.89;85.59;100582.59;5009619;28;20041;-89
2022/02/24 01:43:47;;;;;;;14.05;3.17;;;9.40;97.90;;;7.90;85.74;100584.28;5010365;28;20045;-89
2022/02/24 01:46:15;;;;;;;9.60;3.13;;;9.40;98.80;;;7.91;85.46;100578.69;5009851;28;20133;-90
2022/02/24 01:48:45;;;;;;;12.43;3.42;;;9.30;98.90;;;7.90;86.13;100574.31;5009230;28;20124;-88
2022/02/24 01:51:13;;;;;;;8.68;3.00;;;9.30;98.40;;;7.87;85.79;100571.06;5009476;28;20065;-90
2022/02/24 01:53:40;;;;;;;9.95;3.00;;;9.40;98.60;;;7.92;85.92;100560.56;5008880;28;20048;-89
2022/02/24 01:56:09;;;;;;;16.80;3.55;;;9.40;98.30;;;7.88;85.46;100561.91;5009833;28;20057;-89
2022/02/24 01:58:36;;;;;;;14.32;3.60;;;9.40;98.40;;;7.87;85.22;100552.13;5009778;28;20048;-90
2022/02/24 02:01:03;;;;;;;11.30;2.58;;;9.40;98.40;;;7.83;85.12;100549.72;5010073;28;20050;-89
2022/02/24 02:03:54;;;;;;;9.60;2.63;;;9.40;98.10;;;7.82;86.33;100544.47;5009792;28;20125;-89
2022/02/24 02:06:21;;;;;;;11.75;3.28;;;9.40;98.50;;;7.87;86.76;100546.69;4995039;28;20081;-90
2022/02/24 02:08:50;;;;;;;13.07;3.25;;;9.40;98.50;;;7.88;86.38;100551.94;5009349;28;20104;-91
2022/02/24 02:11:19;;;;;;;11.02;2.97;;;9.40;98.70;;;7.91;85.68;100539.91;4990002;28;20049;-90
2022/02/24 02:13:47;;;;;;;15.38;3.15;;;9.40;98.50;;;7.89;86.04;100547.38;5011299;28;20034;-87
2022/02/24 02:16:15;;;;;;;8.88;2.72;;;9.40;97.90;;;7.92;85.97;100538.88;5012272;28;20050;-89
2022/02/24 02:18:42;;;;;;;17.25;3.30;;;9.40;98.70;;;7.93;85.57;100533.31;5013232;28;20046;-89
2022/02/24 02:21:11;;;;;;;10.15;3.17;;;9.30;99.20;;;7.90;85.42;100528.25;5012181;28;20488;-89
2022/02/24 02:23:38;;;;;;;10.50;3.17;;;9.40;98.00;;;7.89;85.77;100521.13;5011400;28;20124;-88
2022/02/24 02:26:06;;;;;;;12.70;3.05;;;9.40;98.40;;;7.88;85.08;100514.00;5012955;28;20057;-88
2022/02/24 02:28:33;;;;;;;14.77;3.58;;;9.40;98.80;;;7.88;86.01;100513.16;5012861;28;20042;-89
2022/02/24 02:31:00;;;;;;;12.48;2.90;;;9.40;98.60;;;7.83;84.89;100511.78;5013016;28;20069;-88
2022/02/24 02:33:27;;;;;;;11.20;2.85;;;9.40;98.30;;;7.86;85.40;100509.75;5012278;28;20085;-88
2022/02/24 02:35:55;;;;;;;10.25;2.80;;;9.50;97.80;;;7.83;85.62;100500.94;5012677;28;20072;-89
2022/02/24 02:38:24;;;;;;;9.57;3.35;;;9.40;98.60;;;7.88;86.89;100499.59;5012407;28;20040;-88
2022/02/24 02:40:51;;;;;;;13.30;3.83;;;9.40;98.90;;;7.88;87.23;100496.88;4993350;28;20073;-88
2022/02/24 02:43:19;;;;;;;11.65;2.65;;;9.30;99.50;;;7.88;86.25;100499.59;4993489;28;20070;-87
2022/02/24 02:45:49;;;;;;;9.07;2.85;;;9.30;99.70;;;7.86;86.32;100494.34;5012674;28;20048;-89
2022/02/24 02:48:16;;;;;;;13.97;3.00;;;9.30;99.10;;;7.85;86.38;100489.13;5011267;28;20555;-88
2022/02/24 02:50:44;;;;;;;9.93;3.28;;;9.30;99.40;;;7.82;86.07;100488.44;5011845;28;20731;-89
2022/02/24 02:53:11;;;;;;;11.45;3.05;;;9.30;99.30;;;7.79;86.06;100488.75;5012295;28;20038;-87
2022/02/24 02:55:40;;;;;;;12.82;3.38;;;9.40;98.90;;;7.83;86.90;100489.28;5012304;28;20129;-88
2022/02/24 02:58:07;;;;;;;9.75;2.90;;;9.30;99.20;;;7.84;87.00;100480.13;5012438;28;20126;-88
2022/02/24 03:00:35;;;;;;;10.60;2.58;;;9.30;99.00;;;7.82;86.79;100474.88;5011748;28;20129;-88
2022/02/24 03:03:03;;;;;;;13.07;3.05;;;9.30;99.10;;;7.79;86.67;100472.50;5012032;28;20061;-88
2022/02/24 03:05:30;;;;;;;10.45;2.65;;;9.30;99.40;;;7.80;86.88;100468.75;5011807;28;20160;-89
2022/02/24 03:07:57;;;;;;;9.70;2.60;;;9.30;99.10;;;7.83;86.57;100464.91;5012026;28;20085;-88
2022/02/24 03:10:25;;;;;;;14.35;3.25;;;9.30;99.30;;;7.80;86.72;100474.19;5010507;28;20045;-88
2022/02/24 03:12:53;;;;;;;9.95;2.83;;;9.30;99.00;;;7.85;86.65;100470.16;5011580;28;20058;-88
2022/02/24 03:15:20;;;;;;;10.82;3.03;;;9.30;99.20;;;7.83;86.50;100462.19;5012513;28;20143;-87
2022/02/24 03:17:49;;;;;;;10.07;3.08;;;9.30;99.10;;;7.79;86.58;100466.25;5011802;28;20041;-88
2022/02/24 03:20:17;;;;;;;12.88;3.45;;;9.30;99.30;;;7.77;86.43;100458.28;5011564;28;20042;-88
2022/02/24 03:22:45;;;;;;;11.45;3.10;;;9.30;98.60;;;7.80;87.62;100455.22;5011341;28;20510;-89
2022/02/24 03:25:12;;;;;;;9.95;2.80;;;9.30;99.70;;;7.75;87.70;100444.06;5010262;28;20042;-88
2022/02/24 03:27:40;;;;;;;11.35;2.75;;;9.20;99.20;;;7.71;87.56;100445.41;5012043;28;20042;-89
2022/02/24 03:30:10;;;;;;;12.75;2.92;;;9.30;99.70;;;7.72;87.83;100438.97;5011151;28;20034;-89
2022/02/24 03:32:37;;;;;;;9.75;2.50;;;9.20;99.60;;;7.72;87.58;100421.88;5011518;28;20431;-88
2022/02/24 03:35:07;;;;;;;14.35;3.10;;;9.20;99.70;;;7.69;87.39;100433.91;5007824;28;20030;-88
2022/02/24 03:37:35;;;;;;;12.70;2.80;;;9.20;99.90;;;7.71;87.82;100431.88;5012131;28;20117;-88
2022/02/24 03:40:03;;;;;;;12.30;2.97;;;9.20;99.90;;;7.68;87.32;100425.94;5011547;28;20046;-88
2022/02/24 03:42:30;;;;;;;14.65;3.33;;;9.20;99.50;;;7.73;88.20;100413.59;5010118;28;20046;-88
2022/02/24 03:44:57;;;;;;;10.90;3.15;;;9.20;99.80;;;7.71;87.35;100417.47;5011566;28;20523;-88
2022/02/24 03:47:26;;;;;;;14.05;2.78;;;9.20;99.30;;;7.74;87.53;100420.69;5011872;28;20096;-87
2022/02/24 03:49:53;;;;;;;10.70;2.90;;;9.20;99.70;;;7.71;87.29;100415.63;5011366;28;20068;-87
2022/02/24 03:52:21;;;;;;;14.65;2.83;;;9.20;99.80;;;7.74;88.08;100412.56;5011887;28;20113;-87
2022/02/24 03:54:49;;;;;;;11.43;3.35;;;9.20;99.90;;;7.74;88.17;100403.59;5011658;28;20121;-88
2022/02/24 03:57:17;;;;;;;7.70;2.70;;;9.20;99.90;;;7.75;88.53;100399.84;5011955;28;20102;-88
2022/02/24 03:59:45;;;;;;;10.90;3.22;;;9.20;99.90;;;7.76;88.47;100394.25;5010721;28;20049;-88
2022/02/24 04:02:18;;;;;;;12.02;3.13;;;9.30;99.90;;;7.75;87.29;100400.72;5011531;28;20038;-89
2022/02/24 04:04:49;;;;;;;10.38;3.15;;;9.20;99.90;;;7.73;87.36;100391.03;5010230;28;20126;-88
2022/02/24 04:07:17;;;;;;;9.93;2.97;;;9.20;99.90;;;7.65;88.18;100389.19;5011522;28;20073;-88
2022/02/24 04:09:44;;;;;;;12.63;3.35;;;9.20;99.90;;;7.66;88.19;100381.94;5010818;28;20124;-89
2022/02/24 04:12:15;;;;;;;14.73;3.25;;;9.20;99.90;;;7.66;87.83;100376.50;5010838;28;20096;-88
2022/02/24 04:14:43;;;;;;;10.88;3.17;;;9.20;99.90;;;7.57;88.03;100381.91;5010929;28;20392;-89
2022/02/24 04:17:10;;;;;;;12.60;3.25;;;9.20;99.90;;;7.61;88.70;100377.00;5011333;28;20141;-88
2022/02/24 04:19:37;;;;;;;12.13;3.03;;;9.20;99.90;;;7.61;88.72;100377.00;5008979;28;20565;-88
2022/02/24 04:22:06;;;;;;;17.17;3.40;;;9.20;99.90;;;7.61;88.50;100367.00;5010542;28;20347;-87
2022/02/24 04:24:33;;;;;;;14.38;3.13;;;9.20;99.70;;;7.66;88.67;100366.50;5010660;28;20042;-88
2022/02/24 04:27:01;;;;;;;11.85;2.75;;;9.20;99.90;;;7.60;89.06;100368.03;5010460;28;20129;-88
2022/02/24 04:29:28;;;;;;;15.35;3.15;;;9.20;99.90;;;7.62;89.04;100362.47;5010237;28;20069;-88
2022/02/24 04:31:55;;;;;;;11.35;3.00;;;9.20;99.90;;;7.60;88.70;100367.19;5010694;28;20069;-88
2022/02/24 04:34:23;;;;;;;11.98;3.45;;;9.20;99.90;;;7.61;88.77;100358.03;5009804;28;20038;-87
2022/02/24 04:36:50;;;;;;;10.43;3.33;;;9.20;99.90;;;7.60;89.00;100356.38;5008517;28;20056;-87
2022/02/24 04:39:19;;;;;;;10.23;3.15;;;9.20;99.90;;;7.63;88.96;100354.16;5010412;28;20053;-88
2022/02/24 04:41:46;;;;;;;14.88;3.70;;;9.20;99.90;;;7.61;88.94;100348.03;5010529;28;20049;-90
2022/02/24 04:44:13;;;;;;;11.70;3.08;;;9.20;99.90;;;7.62;89.13;100347.03;5009221;28;20080;-89
2022/02/24 04:46:41;;;;;;;13.27;3.25;;;9.20;99.90;;;7.68;89.21;100348.22;5010550;28;20046;-88
2022/02/24 04:49:08;;;;;;;10.43;3.22;;;9.20;99.90;;;7.72;89.17;100336.03;5008812;28;20132;-89
2022/02/24 04:51:36;;;;;;;11.93;3.50;;;9.10;99.90;;;7.68;89.32;100334.69;5010205;28;20049;-87
2022/02/24 04:54:03;;;;;;;14.65;3.35;;;9.10;99.90;;;7.70;88.75;100324.53;5010378;28;20132;-88
2022/02/24 04:56:32;;;;;;;11.13;3.03;;;9.10;99.90;;;7.73;89.58;100320.63;5010449;28;20061;-88
2022/02/24 04:58:59;;;;;;;11.90;3.00;;;9.10;99.90;;;7.71;88.81;100320.81;5010608;28;20653;-88
2022/02/24 05:01:28;;;;;;;12.45;3.88;;;9.20;99.90;;;7.73;89.25;100313.34;5009682;28;20070;-88
2022/02/24 05:03:56;;;;;;;12.52;3.03;;;9.20;99.90;;;7.72;89.67;100319.78;5008891;28;20132;-88
2022/02/24 05:06:23;;;;;;;10.15;3.45;;;9.20;99.90;;;7.66;88.88;100309.63;5009737;28;20712;-87
2022/02/24 05:08:51;;;;;;;10.90;3.20;;;9.20;99.90;;;7.65;89.74;100307.94;5010768;28;20068;-90
2022/02/24 05:11:18;;;;;;;11.55;3.70;;;9.20;99.90;;;7.65;88.95;100310.63;5011250;28;20042;-86
2022/02/24 05:13:47;;;;;;;14.23;3.70;;;9.20;99.90;;;7.62;89.17;100309.13;5011132;28;20053;-94
2022/02/24 05:16:14;;;;;;;11.35;3.42;;;9.20;99.90;;;7.64;89.24;100306.25;5010933;28;20053;-91
2022/02/24 05:18:44;;;;;;;12.45;3.70;;;9.20;99.90;;;7.63;88.98;100307.25;5010365;28;20056;-91
2022/02/24 05:37:18;;;;;;;13.02;3.25;;;9.20;99.80;;;7.61;87.84;100242.44;5048673;28;20048;-90
2022/02/24 05:39:45;;;;;;;10.65;3.60;;;9.20;99.60;;;7.59;88.33;100236.34;5028680;28;20133;-89
2022/02/24 05:42:12;;;;;;;9.13;2.80;;;9.20;99.50;;;7.64;88.61;100241.25;5046734;28;20033;-91
2022/02/24 05:44:53;;;;;;;11.93;2.95;;;9.20;99.60;;;7.55;88.57;100220.63;5049428;28;20077;-93
2022/02/24 05:47:21;;;;;;;10.43;3.00;;;9.20;99.90;;;7.58;88.94;100226.53;5042509;28;20052;-90
2022/02/24 05:50:07;;;;;;;;;;;;;;;;;;;;;
2022/02/24 05:56:49;;;;;;;13.57;3.60;;;9.20;99.90;;;7.57;89.04;100216.72;4854330;29;20093;-92
2022/02/24 06:13:06;;;;;;;8.85;2.60;;;9.20;99.90;;;7.60;88.66;100213.66;5040503;28;20113;-92
2022/02/24 06:15:33;;;;;;;10.98;2.85;;;9.20;99.90;;;7.63;89.31;100204.34;5042064;28;20033;-90
2022/02/24 06:18:08;;;;;;;10.70;3.00;;;9.20;99.90;;;7.62;88.72;100211.63;5044116;28;20435;-91
2022/02/24 06:20:36;;;;;;;8.32;2.80;;;9.20;99.90;;;7.64;89.53;100216.88;5041744;28;20392;-89
2022/02/24 06:23:03;;;;;;;10.65;2.95;;;9.20;99.90;;;7.62;89.04;100210.78;5042798;28;20033;-84
2022/02/24 06:25:30;;;;;;;9.85;2.80;;;9.20;99.90;;;7.64;88.71;100216.88;5049004;28;20755;-86
2022/02/24 06:27:58;;;;;;;13.88;3.25;;;9.20;99.90;;;7.60;88.73;100213.66;5050979;23;20091;-82
2022/02/24 06:30:27;;;;;;;12.68;2.80;;;9.20;99.90;;;7.62;87.78;100216.22;5029264;28;20049;-81
2022/02/24 06:32:55;;;;;;;11.45;2.95;;;9.20;99.90;;;7.66;89.38;100211.28;5029134;28;20077;-82
2022/02/24 06:35:22;;;;;;;12.10;3.40;;;9.20;99.90;;;7.64;88.94;100209.59;5029249;28;20469;-81
2022/02/24 06:37:49;;;;;;;10.68;3.08;;;9.20;99.70;;;7.58;89.00;100202.16;5029113;28;20482;-81
2022/02/24 06:40:17;;;;;;;11.00;3.30;;;9.20;99.90;;;7.56;89.01;100200.66;5009962;28;20128;-81
2022/02/24 06:42:44;;;;;;;12.02;2.72;;;9.20;99.70;;;7.56;88.40;100206.06;5026489;28;20546;-81
2022/02/24 06:45:12;;;;;;;14.93;2.88;;;9.20;99.90;;;7.54;88.58;100197.25;5029536;28;20037;-81
2022/02/24 06:47:40;;;;;;;10.95;2.80;;;9.20;99.50;;;7.52;87.90;100189.31;5026450;28;20050;-81
2022/02/24 06:50:10;;;;;;;9.68;2.50;;;9.20;99.50;;;7.55;88.16;100194.38;5028661;28;20045;-81
2022/02/24 06:52:37;;;;;;;9.18;2.90;;;9.20;99.40;;;7.58;87.33;100193.19;5028188;28;20521;-81
2022/02/24 06:55:06;;;;;;;8.73;2.28;;;9.20;99.60;;;7.54;88.01;100186.41;5029416;28;20044;-81
2022/02/24 06:57:38;;;;;;;12.23;2.72;;;9.20;99.20;;;7.59;87.78;100184.88;5028251;28;20322;-82
2022/02/24 07:00:08;;;;;;;11.80;2.53;;;9.20;99.30;;;7.59;87.14;100184.03;5021540;28;20038;-81
2022/02/24 07:02:35;;;;;;;10.30;2.50;;;9.20;99.30;;;7.55;87.20;100182.72;5032611;28;20096;-81
2022/02/24 07:05:05;;;;;;;12.30;2.63;;;9.20;99.20;;;7.54;88.30;100179.16;5032381;28;20041;-81
2022/02/24 07:07:34;;;;;;;10.93;2.60;;;9.20;99.20;;;7.56;86.84;100174.41;5031907;28;20467;-81
2022/02/24 07:10:02;;;;;;;11.07;2.20;;;9.20;99.40;;;7.57;87.13;100172.53;5030805;28;20045;-81
2022/02/24 07:12:30;;;;;;;8.75;2.30;;;9.20;98.90;;;7.63;85.94;100175.41;5032634;28;20116;-81
2022/02/24 07:14:57;;;;;;;12.27;2.40;;;9.20;97.40;;;7.61;86.04;100171.19;5032835;28;20041;-81
2022/02/24 07:17:26;;;;;;;8.10;2.00;;;9.30;97.90;;;7.64;86.78;100170.84;5022107;28;20053;-82
2022/02/24 07:19:54;;;;;;;14.25;2.70;;;9.20;98.10;;;7.66;87.12;100162.53;5032504;28;20560;-82
2022/02/24 07:22:23;;;;;;;10.02;2.03;;;9.30;99.00;;;7.73;86.43;100156.25;5023855;28;20037;-82
2022/02/24 07:24:50;;;;;;;9.80;2.90;;;9.20;98.90;;;7.78;86.93;100167.38;5030698;28;20065;-80
2022/02/24 07:27:17;;;;;;;8.25;2.10;;;9.30;99.30;;;7.75;86.56;100154.22;5030285;28;20188;-81
2022/02/24 07:29:44;;;;;;;14.45;2.20;;;9.30;98.40;;;7.75;86.48;100151.50;5024345;28;20049;-82
2022/02/24 07:32:22;;;;;;;9.00;2.45;;;9.30;98.60;;;7.79;86.30;100146.59;5031540;28;20096;-82
2022/02/24 07:34:49;;;;;;;13.45;2.65;;;9.30;98.50;;;7.81;86.63;100149.97;5046128;28;20490;-81
2022/02/24 07:37:18;;;;;;;11.45;2.40;;;9.30;98.00;;;7.79;87.21;100152.84;5030372;28;20501;-81
2022/02/24 07:39:47;;;;;;;14.43;3.10;;;9.30;98.90;;;7.79;87.06;100150.13;5031404;28;20038;-82
2022/02/24 07:42:17;;;;;;;13.98;2.75;;;9.40;98.10;;;7.85;86.98;100147.75;5031210;28;20069;-80
2022/02/24 07:44:44;;;;;;;11.25;2.60;;;9.40;98.40;;;7.92;86.10;100148.69;5031105;28;20046;-81
2022/02/24 07:47:11;;;;;;;9.70;2.38;;;9.50;98.10;;;7.96;85.08;100148.19;5030590;28;20411;-81
2022/02/24 07:49:39;;;;;;;10.70;2.20;;;9.50;97.80;;;8.01;85.69;100139.53;5031434;28;20667;-80
2022/02/24 07:52:08;;;;;;;12.02;2.58;;;9.50;98.30;;;7.99;85.12;100136.16;5031078;28;20061;-81
2022/02/24 07:54:35;;;;;;;12.90;2.60;;;9.50;98.10;;;8.00;85.81;100137.84;5029341;28;20092;-80
2022/02/24 07:57:06;;;;;;;8.88;2.35;;;9.50;98.20;;;8.07;85.58;100141.50;5011838;28;20088;-80
2022/02/24 07:59:34;;;;;;;7.72;2.70;;;9.50;97.90;;;8.12;85.62;100136.41;5017113;28;20041;-80
2022/02/24 08:02:01;;;;;;;11.77;2.40;;;9.60;97.50;;;8.17;85.08;100130.47;5030881;28;20550;-81
2022/02/24 08:04:28;;;;;;;11.43;2.80;;;9.60;98.10;;;8.18;84.96;100124.00;5030614;28;20487;-80
2022/02/24 08:06:55;;;;;;;7.68;2.20;;;9.60;98.60;;;8.14;86.47;100123.53;5028844;28;20041;-80
2022/02/24 08:09:23;;;;;;;10.20;2.28;;;9.60;98.70;;;8.14;85.54;100117.25;5029997;28;20120;-81
2022/02/24 08:14:32;;;;;;;8.05;2.30;;;9.70;98.50;;;8.16;85.04;100110.63;5029740;28;20041;-80
2022/02/24 08:17:00;;;;;;;9.60;2.10;;;9.70;97.80;;;8.19;85.63;100110.28;5030358;28;20045;-81
2022/02/24 08:19:27;;;;;;;10.07;2.60;;;9.70;97.80;;;8.21;85.20;100107.41;5013190;28;20049;-80
2022/02/24 08:21:54;;;;;;;11.40;2.75;;;9.70;97.60;;;8.26;84.36;100114.97;5031144;28;20078;-80
2022/02/24 08:24:21;;;;;;;8.60;2.03;;;9.70;97.90;;;8.30;85.69;100106.34;5029953;28;20527;-81
2022/02/24 08:26:49;;;;;;;8.82;2.40;;;9.80;97.70;;;8.35;85.04;100109.31;5030187;28;20068;-80
2022/02/24 08:29:16;;;;;;;6.57;2.00;;;9.80;97.40;;;8.42;85.62;100104.06;5030711;28;20044;-81
2022/02/24 08:31:45;;;;;;;14.70;3.53;;;9.80;97.60;;;8.47;84.50;100096.22;5031190;28;20574;-81
2022/02/24 08:34:12;;;;;;;11.23;2.75;;;9.90;96.60;;;8.49;84.28;100096.91;5029967;28;20048;-82
2022/02/24 08:36:39;;;;;;;12.43;2.75;;;9.90;97.40;;;8.52;85.20;100096.53;5030855;28;20044;-82
2022/02/24 08:39:06;;;;;;;8.82;2.17;;;9.90;97.80;;;8.52;84.43;100096.53;5029881;28;20142;-82
2022/02/24 08:41:34;;;;;;;14.80;2.88;;;9.90;96.70;;;8.46;83.79;100091.84;5030808;28;20048;-82
2022/02/24 08:44:01;;;;;;;12.20;2.28;;;10.00;96.90;;;8.50;83.42;100084.19;5029866;28;20056;-81
2022/02/24 08:46:28;;;;;;;10.27;2.47;;;10.00;96.80;;;8.58;84.17;100076.81;5016906;28;20570;-83
2022/02/24 08:48:57;;;;;;;12.90;2.40;;;10.10;96.70;;;8.66;83.49;100080.47;5030116;28;20120;-81
2022/02/24 08:51:24;;;;;;;10.52;2.90;;;10.10;96.50;;;8.72;83.25;100071.59;5030195;28;20502;-82
2022/02/24 08:53:51;;;;;;;14.43;2.60;;;10.10;96.20;;;8.73;82.50;100066.00;5030667;28;20460;-82
2022/02/24 08:56:19;;;;;;;21.63;3.08;;;10.10;94.70;;;8.81;82.22;100059.66;5030112;28;20120;-82
2022/02/24 08:58:46;;;;;;;7.60;2.10;;;10.20;95.00;;;8.79;82.25;100061.69;5011538;28;20052;-81
2022/02/24 09:01:13;;;;;;;9.73;2.22;;;10.20;95.40;;;8.84;83.08;100053.88;5030367;28;20047;-81
2022/02/24 09:03:40;;;;;;;18.83;2.35;;;10.20;96.00;;;8.90;81.90;100057.72;5029739;28;20506;-81
2022/02/24 09:06:09;;;;;;;11.57;2.47;;;10.30;95.60;;;8.91;82.73;100054.81;5027417;28;20566;-81
2022/02/24 09:08:36;;;;;;;10.95;2.30;;;10.30;95.80;;;8.92;82.64;100050.22;5025591;28;20061;-81
2022/02/24 09:11:04;;;;;;;9.75;2.00;;;10.30;95.80;;;8.97;82.71;100056.78;5036683;28;20094;-81
2022/02/24 09:13:31;;;;;;;9.02;2.25;;;10.40;95.40;;;8.99;81.73;100046.56;5040719;28;20502;-81
2022/02/24 09:15:58;;;;;;;11.45;2.58;;;10.40;94.70;;;9.07;82.35;100037.50;5029684;28;20033;-81
2022/02/24 09:18:25;;;;;;;9.30;2.28;;;10.40;95.30;;;9.08;82.12;100035.63;5029238;28;20124;-81
2022/02/24 09:20:53;;;;;;;15.75;2.50;;;10.40;94.90;;;9.08;81.99;100027.47;5029742;28;20069;-81
2022/02/24 09:23:21;;;;;;;10.93;2.80;;;10.40;94.80;;;9.08;81.31;100017.50;5029512;28;20041;-81
2022/02/24 09:25:49;;;;;;;12.73;2.80;;;10.50;94.70;;;9.07;82.34;100009.53;5029622;28;20561;-81
2022/02/24 09:28:16;;;;;;;10.60;2.17;;;10.50;95.00;;;8.98;82.25;100001.44;5023331;28;20041;-81
2022/02/24 09:30:43;;;;;;;10.27;2.45;;;10.50;95.10;;;8.99;81.94;99996.88;5010773;28;20072;-81
2022/02/24 09:33:11;;;;;;;16.10;2.60;;;10.50;94.70;;;9.01;81.38;100000.25;5011480;28;20400;-81
2022/02/24 09:35:38;;;;;;;9.93;2.15;;;10.50;94.80;;;9.00;81.46;100010.28;5029515;28;20069;-81
2022/02/24 09:38:06;;;;;;;13.25;2.10;;;10.50;94.90;;;9.07;81.64;99990.53;5027929;28;20492;-82
2022/02/24 09:40:35;;;;;;;12.07;2.70;;;10.50;94.60;;;9.09;81.41;99992.00;5029931;28;20048;-82
2022/02/24 09:43:04;;;;;;;9.15;2.28;;;10.50;94.90;;;9.13;81.82;99981.63;5029287;28;20095;-82
2022/02/24 09:45:36;;;;;;;9.50;2.25;;;10.50;94.50;;;9.18;82.14;99979.19;5029425;28;20052;-81
2022/02/24 09:48:06;;;;;;;7.68;1.77;;;10.50;95.60;;;9.22;82.29;99975.06;5012635;28;20045;-82
2022/02/24 09:50:37;;;;;;;11.45;2.53;;;10.60;95.30;;;9.26;82.13;99968.22;5029024;28;20038;-81
2022/02/24 09:53:07;;;;;;;8.60;2.08;;;10.60;95.20;;;9.31;82.71;99962.22;5010047;28;20091;-82
2022/02/24 09:55:39;;;;;;;12.00;2.38;;;10.60;95.70;;;9.32;82.82;99947.59;5029751;28;20048;-82
2022/02/24 09:58:06;;;;;;;11.98;2.65;;;10.70;95.80;;;9.35;82.75;99937.22;5011448;28;20049;-81
2022/02/24 10:00:42;;;;;;;12.68;2.63;;;10.70;95.80;;;9.40;82.77;99939.34;5028877;28;20124;-82
2022/02/24 10:03:30;;;;;;;13.52;2.60;;;10.70;95.90;;;9.41;83.93;99940.22;5029260;28;20534;-81
2022/02/24 10:06:06;;;;;;;11.38;2.80;;;10.70;96.40;;;9.38;84.23;99925.94;5025297;28;20045;-82
2022/02/24 10:08:35;;;;;;;14.25;2.97;;;10.80;96.60;;;9.43;84.67;99928.09;5027789;28;20033;-82
2022/02/24 10:11:18;;;;;;;9.70;2.63;;;10.80;96.90;;;9.51;84.43;99921.72;5029903;28;20052;-82
2022/02/24 10:14:07;;;;;;;10.95;2.75;;;10.80;96.60;;;9.56;84.95;99911.94;5028946;28;20136;-82
2022/02/24 10:16:53;;;;;;;17.48;4.00;;;10.90;97.20;;;9.66;84.62;99903.47;5028635;28;20485;-81
2022/02/24 10:19:36;;;;;;;11.82;3.13;;;11.00;96.80;;;9.70;84.14;99895.78;5028805;28;20049;-82
2022/02/24 10:22:14;;;;;;;12.65;3.13;;;11.00;96.60;;;9.74;84.71;99892.47;5029671;28;20034;-82
2022/02/24 10:24:47;;;;;;;10.02;3.20;;;11.00;96.50;;;9.80;84.21;99879.97;5026751;28;20140;-82
2022/02/24 10:27:27;;;;;;;11.98;3.58;;;11.10;96.40;;;9.77;83.87;99875.78;5022309;28;20042;-82
2022/02/24 10:30:08;;;;;;;14.82;3.20;;;11.10;95.80;;;9.69;83.26;99884.09;5029323;28;20099;-81
2022/02/24 10:32:38;;;;;;;13.02;2.85;;;11.10;95.60;;;9.68;83.35;99876.97;5028740;28;20077;-80
2022/02/24 10:35:27;;;;;;;10.13;3.00;;;11.10;95.70;;;9.78;83.78;99863.88;5032153;28;20103;-79
2022/02/24 10:38:04;;;;;;;8.40;2.80;;;11.10;96.20;;;9.85;83.36;99868.53;5032349;28;20041;-80
2022/02/24 10:40:34;;;;;;;7.47;2.65;;;11.10;96.10;;;9.83;83.13;99874.16;5033462;28;20411;-80
2022/02/24 10:43:23;;;;;;;10.40;2.92;;;11.10;95.80;;;9.70;82.99;99866.72;5032726;28;20426;-82
2022/02/24 10:46:01;;;;;;;11.40;2.83;;;11.10;95.30;;;9.64;83.34;99869.41;5029105;28;20088;-81
2022/02/24 10:48:29;;;;;;;9.93;3.42;;;11.10;95.60;;;9.57;82.88;99853.03;5031345;28;20498;-81
2022/02/24 10:51:00;;;;;;;16.63;3.15;;;11.00;95.40;;;9.52;83.43;99867.19;5033034;28;20103;-81
2022/02/24 10:53:30;;;;;;;12.05;3.00;;;11.00;95.70;;;9.48;83.59;99859.63;5024480;28;20100;-81
2022/02/24 10:56:01;;;;;;;12.25;2.80;;;10.90;95.90;;;9.46;83.55;99861.69;5031799;28;20030;-80
2022/02/24 10:58:35;;;;;;;12.02;2.90;;;10.90;96.30;;;9.45;83.49;99857.31;5032314;28;20087;-80
2022/02/24 11:01:12;;;;;;;9.35;2.53;;;10.90;96.00;;;9.55;84.22;99836.09;5032619;28;20056;-81
2022/02/24 11:03:44;;;;;;;8.65;2.90;;;11.00;96.00;;;9.65;84.56;99833.88;5032391;28;20073;-81
2022/02/24 11:06:13;;;;;;;9.70;3.42;;;11.00;96.70;;;9.72;83.59;99823.91;5032581;28;20045;-81